createdAt,value
2023-03-31T00:00:58.212Z,14.69
2023-03-31T00:03:26.355Z,14.56
2023-03-31T00:05:58.375Z,14.54
2023-03-31T00:08:30.578Z,14.57
2023-03-31T00:11:01.038Z,14.47
2023-03-31T00:13:28.941Z,14.43
2023-03-31T00:16:00.356Z,14.43
2023-03-31T00:18:28.154Z,14.42
2023-03-31T00:21:06.842Z,14.34
2023-03-31T00:23:34.495Z,14.23
2023-03-31T00:26:02.192Z,14.12
2023-03-31T00:28:29.972Z,14.04
2023-03-31T00:31:02.001Z,13.92
2023-03-31T00:33:30.144Z,13.80
2023-03-31T00:36:06.104Z,13.79
2023-03-31T00:38:34.505Z,13.92
2023-03-31T00:41:03.120Z,13.76
2023-03-31T00:43:33.002Z,13.77
2023-03-31T00:46:15.657Z,13.73
2023-03-31T00:48:48.302Z,13.55
2023-03-31T00:51:19.016Z,13.48
2023-03-31T00:53:48.683Z,13.55
2023-03-31T00:56:18.317Z,13.41
2023-03-31T00:58:47.253Z,13.39
2023-03-31T01:01:17.795Z,13.40
2023-03-31T01:03:46.856Z,13.31
2023-03-31T01:06:16.859Z,13.23
2023-03-31T01:08:44.919Z,12.90
2023-03-31T01:11:16.405Z,13.13
2023-03-31T01:13:45.938Z,13.19
2023-03-31T01:16:13.750Z,13.26
2023-03-31T01:18:46.476Z,13.26
2023-03-31T01:22:01.353Z,13.32
2023-03-31T01:25:10.095Z,13.22
2023-03-31T01:27:54.100Z,13.39
2023-03-31T01:30:38.434Z,13.28
2023-03-31T01:33:37.230Z,13.37
2023-03-31T01:36:36.223Z,13.35
2023-03-31T01:39:32.169Z,13.24
2023-03-31T01:42:04.002Z,13.61
2023-03-31T01:44:36.336Z,13.51
2023-03-31T01:47:09.568Z,13.65
2023-03-31T01:49:42.084Z,13.73
2023-03-31T01:52:16.148Z,13.85
2023-03-31T01:54:50.703Z,14.09
2023-03-31T01:57:21.331Z,13.96
2023-03-31T01:59:54.138Z,13.90
2023-03-31T02:02:27.053Z,14.05
2023-03-31T02:04:59.067Z,14.05
2023-03-31T02:07:30.844Z,14.16
2023-03-31T02:10:01.963Z,14.26
2023-03-31T02:12:33.044Z,14.24
2023-03-31T02:15:02.227Z,14.38
2023-03-31T02:17:32.618Z,14.49
2023-03-31T02:20:05.635Z,14.33
2023-03-31T02:22:36.185Z,14.22
2023-03-31T02:25:06.317Z,14.13
2023-03-31T02:27:37.496Z,14.29
2023-03-31T02:30:06.784Z,14.26
2023-03-31T02:32:37.708Z,14.09
2023-03-31T02:35:07.060Z,14.11
2023-03-31T02:37:35.226Z,14.27
2023-03-31T02:40:08.966Z,14.07
2023-03-31T02:42:38.222Z,14.08
2023-03-31T02:45:08.539Z,13.95
2023-03-31T02:47:36.251Z,14.07
2023-03-31T02:50:05.737Z,14.06
2023-03-31T02:52:41.701Z,14.04
2023-03-31T02:55:28.114Z,14.01
2023-03-31T02:58:26.773Z,13.98
2023-03-31T03:01:16.751Z,13.90
2023-03-31T03:03:55.771Z,13.71
2023-03-31T03:06:37.550Z,13.81
2023-03-31T03:09:14.851Z,13.91
2023-03-31T03:11:47.623Z,13.84
2023-03-31T03:14:22.643Z,13.80
2023-03-31T03:16:55.931Z,13.80
2023-03-31T03:19:24.160Z,13.54
2023-03-31T03:21:51.795Z,13.76
2023-03-31T03:24:19.710Z,13.73
2023-03-31T03:26:48.039Z,13.71
2023-03-31T03:29:15.690Z,13.67
2023-03-31T03:31:43.382Z,13.77
2023-03-31T03:34:12.607Z,14.01
2023-03-31T03:36:40.649Z,13.95
2023-03-31T03:39:09.006Z,14.09
2023-03-31T03:41:36.740Z,14.08
2023-03-31T03:44:04.715Z,14.20
2023-03-31T03:46:32.845Z,14.13
2023-03-31T03:49:00.927Z,13.98
2023-03-31T03:51:29.938Z,13.77
2023-03-31T03:53:57.678Z,13.86
2023-03-31T03:56:26.370Z,13.96
2023-03-31T03:58:54.083Z,13.85
2023-03-31T04:01:22.596Z,13.60
2023-03-31T04:03:50.539Z,13.89
2023-03-31T04:06:18.441Z,14.03
2023-03-31T04:08:47.513Z,13.89
2023-03-31T04:11:18.963Z,14.11
2023-03-31T04:13:47.593Z,14.08
2023-03-31T04:16:16.839Z,14.23
2023-03-31T04:18:46.096Z,14.21
2023-03-31T04:21:15.525Z,13.96
2023-03-31T04:23:46.754Z,14.10
2023-03-31T04:26:18.088Z,14.07
2023-03-31T04:28:50.599Z,14.25
2023-03-31T04:31:25.387Z,14.29
2023-03-31T04:33:53.541Z,14.11
2023-03-31T04:36:21.461Z,14.22
2023-03-31T04:38:50.725Z,14.04
2023-03-31T04:41:19.910Z,14.02
2023-03-31T04:43:47.619Z,14.00
2023-03-31T04:46:15.470Z,14.07
2023-03-31T04:48:43.359Z,14.02
2023-03-31T04:51:11.063Z,14.06
2023-03-31T04:53:38.698Z,14.01
2023-03-31T04:56:07.949Z,14.09
2023-03-31T04:58:37.329Z,14.10
2023-03-31T05:01:07.452Z,14.08
2023-03-31T05:03:35.535Z,13.92
2023-03-31T05:06:03.460Z,13.91
2023-03-31T05:08:31.391Z,13.95
2023-03-31T05:10:59.108Z,13.77
2023-03-31T05:13:26.758Z,13.80
2023-03-31T05:15:55.842Z,13.95
2023-03-31T05:18:23.546Z,13.91
2023-03-31T05:20:51.249Z,13.84
2023-03-31T05:23:18.960Z,13.86
2023-03-31T05:25:46.681Z,13.97
2023-03-31T05:28:14.365Z,13.99
2023-03-31T05:30:42.103Z,13.77
2023-03-31T05:33:11.197Z,13.63
2023-03-31T05:35:39.150Z,13.55
2023-03-31T05:38:07.730Z,13.59
2023-03-31T05:40:35.481Z,13.50
2023-03-31T05:43:03.172Z,13.52
2023-03-31T05:45:30.932Z,13.49
2023-03-31T05:47:58.768Z,13.49
2023-03-31T05:50:27.891Z,13.35
2023-03-31T05:52:55.632Z,13.47
2023-03-31T05:55:23.337Z,13.42
2023-03-31T05:57:51.036Z,13.42
2023-03-31T06:00:19.674Z,13.21
2023-03-31T06:02:47.571Z,13.33
2023-03-31T06:05:15.511Z,13.37
2023-03-31T06:07:44.564Z,13.41
2023-03-31T06:10:12.310Z,13.36
2023-03-31T06:12:40.053Z,13.48
2023-03-31T06:15:08.765Z,13.54
2023-03-31T06:17:38.514Z,13.72
2023-03-31T06:20:19.708Z,13.80
2023-03-31T06:22:55.944Z,13.50
2023-03-31T06:25:23.753Z,13.53
2023-03-31T06:27:51.430Z,13.66
2023-03-31T06:30:19.191Z,13.75
2023-03-31T06:32:47.070Z,13.86
2023-03-31T06:35:15.022Z,13.84
2023-03-31T06:37:43.061Z,13.90
2023-03-31T06:40:13.170Z,13.69
2023-03-31T06:42:40.828Z,13.69
2023-03-31T06:45:08.964Z,13.74
2023-03-31T06:47:38.192Z,13.83
2023-03-31T06:50:07.066Z,13.92
2023-03-31T06:52:34.881Z,14.09
2023-03-31T06:55:02.647Z,14.05
2023-03-31T06:57:33.608Z,14.12
2023-03-31T07:00:01.565Z,14.28
2023-03-31T07:02:29.457Z,14.36
2023-03-31T07:04:57.221Z,14.39
2023-03-31T07:07:24.894Z,14.50
2023-03-31T07:09:52.598Z,14.61
2023-03-31T07:12:20.625Z,14.77
2023-03-31T07:14:49.667Z,14.88
2023-03-31T07:17:18.515Z,14.68
2023-03-31T07:19:48.248Z,14.75
2023-03-31T07:22:16.085Z,14.78
2023-03-31T07:24:43.906Z,14.59
2023-03-31T07:27:11.697Z,14.95
2023-03-31T07:29:39.364Z,15.05
2023-03-31T07:32:08.593Z,15.08
2023-03-31T07:34:37.809Z,15.06
2023-03-31T07:37:06.200Z,15.08
2023-03-31T07:39:33.914Z,15.12
2023-03-31T07:42:01.585Z,15.18
2023-03-31T07:44:29.278Z,15.08
2023-03-31T07:46:58.564Z,15.02
2023-03-31T07:49:27.603Z,15.06
2023-03-31T07:51:55.354Z,14.84
2023-03-31T07:54:23.026Z,14.96
2023-03-31T07:56:51.048Z,15.07
2023-03-31T07:59:18.896Z,14.95
2023-03-31T08:01:46.748Z,15.04
2023-03-31T08:04:14.726Z,15.14
2023-03-31T08:06:43.861Z,15.34
2023-03-31T08:09:11.750Z,15.66
2023-03-31T08:11:39.480Z,15.96
2023-03-31T08:14:07.176Z,16.57
2023-03-31T08:16:34.942Z,17.19
2023-03-31T08:19:03.363Z,17.47
2023-03-31T08:21:31.341Z,17.73
2023-03-31T08:24:00.423Z,18.14
2023-03-31T08:26:28.351Z,17.76
2023-03-31T08:28:56.026Z,17.85
2023-03-31T08:31:27.436Z,17.63
2023-03-31T08:33:55.363Z,17.98
2023-03-31T08:36:23.511Z,18.05
2023-03-31T08:38:51.764Z,18.12
2023-03-31T08:41:32.312Z,18.36
2023-03-31T08:44:01.397Z,18.06
2023-03-31T08:46:30.805Z,18.02
2023-03-31T08:49:01.066Z,17.71
2023-03-31T08:51:31.208Z,17.52
2023-03-31T08:54:03.605Z,17.93
2023-03-31T08:56:39.181Z,17.63
2023-03-31T08:59:07.626Z,17.23
2023-03-31T09:01:54.777Z,17.36
2023-03-31T09:04:42.767Z,17.58
2023-03-31T09:07:15.957Z,17.51
2023-03-31T09:09:50.158Z,17.50
2023-03-31T09:12:22.352Z,17.01
2023-03-31T09:14:53.744Z,16.97
2023-03-31T09:17:24.455Z,16.53
2023-03-31T09:19:54.974Z,16.73
2023-03-31T09:22:25.527Z,17.32
2023-03-31T09:24:58.064Z,17.46
2023-03-31T09:27:28.514Z,17.65
2023-03-31T09:29:58.348Z,17.72
2023-03-31T09:32:29.514Z,17.64
2023-03-31T09:35:01.058Z,17.70
2023-03-31T09:37:32.723Z,18.02
2023-03-31T09:40:01.276Z,17.51
2023-03-31T09:42:30.390Z,17.45
2023-03-31T09:44:58.069Z,17.24
2023-03-31T09:47:31.029Z,17.48
2023-03-31T09:49:58.823Z,17.33
2023-03-31T09:52:30.268Z,17.49
2023-03-31T09:55:00.587Z,17.44
2023-03-31T09:57:33.513Z,17.33
2023-03-31T10:00:16.607Z,17.61
2023-03-31T10:02:46.083Z,17.53
2023-03-31T10:05:27.725Z,17.23
2023-03-31T10:08:15.780Z,17.24
2023-03-31T10:10:46.937Z,17.65
2023-03-31T10:13:18.669Z,17.29
2023-03-31T10:15:46.665Z,17.64
2023-03-31T10:18:15.508Z,17.62
2023-03-31T10:20:46.534Z,17.53
2023-03-31T10:23:18.674Z,17.43
2023-03-31T10:25:48.002Z,17.27
2023-03-31T10:28:19.830Z,17.10
2023-03-31T10:30:49.712Z,17.10
2023-03-31T10:33:23.232Z,16.85
2023-03-31T10:35:52.021Z,16.48
2023-03-31T10:38:25.772Z,16.61
2023-03-31T10:40:55.518Z,16.48
2023-03-31T10:43:27.284Z,16.64
2023-03-31T10:45:56.577Z,16.85
2023-03-31T10:48:26.715Z,16.80
2023-03-31T10:50:54.801Z,17.02
2023-03-31T10:53:22.749Z,17.14
2023-03-31T10:56:00.497Z,17.14
2023-03-31T10:58:43.771Z,17.17
2023-03-31T11:01:25.440Z,17.23
2023-03-31T11:04:03.586Z,17.30
2023-03-31T11:06:37.249Z,17.94
2023-03-31T11:09:17.632Z,18.11
2023-03-31T11:11:56.697Z,18.85
2023-03-31T11:14:33.527Z,19.07
2023-03-31T11:17:05.005Z,18.54
2023-03-31T11:19:40.889Z,18.35
2023-03-31T11:22:11.186Z,18.29
2023-03-31T11:24:54.873Z,18.04
2023-03-31T11:27:32.229Z,17.89
2023-03-31T11:30:06.430Z,17.88
2023-03-31T11:32:46.835Z,18.28
2023-03-31T11:35:24.458Z,18.58
2023-03-31T11:38:02.464Z,18.13
2023-03-31T11:40:41.511Z,18.55
2023-03-31T11:43:24.504Z,18.93
2023-03-31T11:45:55.282Z,18.82
2023-03-31T11:48:29.585Z,19.12
2023-03-31T11:50:57.925Z,19.10
2023-03-31T11:53:29.185Z,19.33
2023-03-31T11:55:58.174Z,19.57
2023-03-31T11:58:31.423Z,19.85
2023-03-31T12:01:06.276Z,20.16
2023-03-31T12:03:39.604Z,20.39
2023-03-31T12:06:17.271Z,20.05
2023-03-31T12:08:50.398Z,20.04
2023-03-31T12:11:21.974Z,19.59
2023-03-31T12:13:53.640Z,19.49
2023-03-31T12:16:24.475Z,19.30
2023-03-31T12:18:59.307Z,19.85
2023-03-31T12:21:28.404Z,19.85
2023-03-31T12:23:56.551Z,18.46
2023-03-31T12:26:33.328Z,18.45
2023-03-31T12:29:07.176Z,18.85
2023-03-31T12:31:38.677Z,19.20
2023-03-31T12:34:08.774Z,18.95
2023-03-31T12:36:47.883Z,18.78
2023-03-31T12:39:26.213Z,18.61
2023-03-31T12:42:06.815Z,17.89
2023-03-31T12:44:42.984Z,17.92
2023-03-31T12:47:27.786Z,18.17
2023-03-31T12:50:10.695Z,18.31
2023-03-31T12:52:45.555Z,18.83
2023-03-31T12:55:32.223Z,19.34
2023-03-31T12:58:37.179Z,19.53
2023-03-31T13:01:10.349Z,19.23
2023-03-31T13:03:45.113Z,19.14
2023-03-31T13:06:13.802Z,18.73
2023-03-31T13:08:56.112Z,18.45
2023-03-31T13:11:36.858Z,18.30
2023-03-31T13:14:06.687Z,18.47
2023-03-31T13:16:36.042Z,18.72
2023-03-31T13:19:05.380Z,19.45
2023-03-31T13:21:33.170Z,19.56
2023-03-31T13:24:02.193Z,19.65
2023-03-31T13:26:47.994Z,19.62
2023-03-31T13:29:24.649Z,19.35
2023-03-31T13:32:21.208Z,19.05
2023-03-31T13:34:55.778Z,18.66
2023-03-31T13:37:45.013Z,18.05
2023-03-31T13:40:32.087Z,18.46
2023-03-31T13:43:12.726Z,18.27
2023-03-31T13:45:49.531Z,18.49
2023-03-31T13:48:34.722Z,18.91
2023-03-31T13:51:19.981Z,19.32
2023-03-31T13:54:24.908Z,19.56
2023-03-31T13:57:23.398Z,19.51
2023-03-31T14:00:12.462Z,19.44
2023-03-31T14:03:06.962Z,19.60
2023-03-31T14:05:38.780Z,19.42
2023-03-31T14:08:12.402Z,19.40
2023-03-31T14:10:42.176Z,19.03
2023-03-31T14:13:12.002Z,18.95
2023-03-31T14:15:42.184Z,18.38
2023-03-31T14:18:11.933Z,18.25
2023-03-31T14:20:58.966Z,18.16
2023-03-31T14:23:39.876Z,18.86
2023-03-31T14:26:11.672Z,18.66
2023-03-31T14:28:49.651Z,18.83
2023-03-31T14:31:23.510Z,19.06
2023-03-31T14:34:04.591Z,18.74
2023-03-31T14:36:38.034Z,18.80
2023-03-31T14:39:10.248Z,18.76
2023-03-31T14:41:38.189Z,18.97
2023-03-31T14:44:07.851Z,19.08
2023-03-31T14:46:39.212Z,18.90
2023-03-31T14:49:19.827Z,19.24
2023-03-31T14:51:48.582Z,19.09
2023-03-31T14:54:19.612Z,19.11
2023-03-31T14:56:49.782Z,18.99
2023-03-31T14:59:22.043Z,18.80
2023-03-31T15:01:50.572Z,18.61
2023-03-31T15:04:25.861Z,18.77
2023-03-31T15:07:01.447Z,18.94
2023-03-31T15:09:31.924Z,18.93
2023-03-31T15:12:01.608Z,18.71
2023-03-31T15:14:30.843Z,18.90
2023-03-31T15:16:58.553Z,18.85
2023-03-31T15:19:28.999Z,18.57
2023-03-31T15:21:57.943Z,18.45
2023-03-31T15:24:25.613Z,18.12
2023-03-31T15:26:58.731Z,17.70
2023-03-31T15:29:29.972Z,17.56
2023-03-31T15:31:58.482Z,16.91
2023-03-31T15:34:28.365Z,16.75
2023-03-31T15:36:57.013Z,16.56
2023-03-31T15:39:26.032Z,16.66
2023-03-31T15:41:56.121Z,16.45
2023-03-31T15:44:30.705Z,16.56
2023-03-31T15:47:02.053Z,16.79
2023-03-31T15:49:30.590Z,17.02
2023-03-31T15:52:00.500Z,17.30
2023-03-31T15:54:35.159Z,17.46
2023-03-31T15:57:05.318Z,17.84
2023-03-31T15:59:54.563Z,17.99
2023-03-31T16:02:25.156Z,18.24
2023-03-31T16:04:57.067Z,17.83
2023-03-31T16:07:28.081Z,17.84
2023-03-31T16:09:57.748Z,17.18
2023-03-31T16:12:29.433Z,16.89
2023-03-31T16:14:59.253Z,16.51
2023-03-31T16:17:31.061Z,16.38
2023-03-31T16:20:05.030Z,16.37
2023-03-31T16:22:37.285Z,16.53
2023-03-31T16:25:10.717Z,16.62
2023-03-31T16:27:42.534Z,16.69
2023-03-31T16:30:13.561Z,16.62
2023-03-31T16:33:00.974Z,16.82
2023-03-31T16:35:34.646Z,16.87
2023-03-31T16:38:02.796Z,16.72
2023-03-31T16:40:32.742Z,16.63
2023-03-31T16:43:13.230Z,16.49
2023-03-31T16:45:41.383Z,16.33
2023-03-31T16:48:16.463Z,16.07
2023-03-31T16:50:45.990Z,16.07
2023-03-31T16:53:14.190Z,16.01
2023-03-31T16:55:42.063Z,15.61
2023-03-31T16:58:11.444Z,15.61
2023-03-31T17:00:40.261Z,15.61
2023-03-31T17:03:09.041Z,15.63
2023-03-31T17:05:39.364Z,15.71
2023-03-31T17:08:08.473Z,15.96
2023-03-31T17:10:36.305Z,15.96
2023-03-31T17:13:04.228Z,16.04
2023-03-31T17:15:36.233Z,16.15
2023-03-31T17:18:04.848Z,16.12
2023-03-31T17:20:32.886Z,16.13
2023-03-31T17:23:00.670Z,16.11
2023-03-31T17:25:28.513Z,16.08
2023-03-31T17:27:56.340Z,15.77
2023-03-31T17:30:24.250Z,15.73
2023-03-31T17:32:53.644Z,15.84
2023-03-31T17:35:22.355Z,15.86
2023-03-31T17:37:53.603Z,15.63
2023-03-31T17:40:21.419Z,15.65
2023-03-31T17:42:49.536Z,15.64
2023-03-31T17:45:17.518Z,15.53
2023-03-31T17:47:46.205Z,15.47
2023-03-31T17:50:15.311Z,15.48
2023-03-31T17:52:42.994Z,15.51
2023-03-31T17:55:11.695Z,15.53
2023-03-31T17:57:40.570Z,15.37
2023-03-31T18:00:10.083Z,15.31
2023-03-31T18:02:38.331Z,15.14
2023-03-31T18:05:06.811Z,15.11
2023-03-31T18:07:36.845Z,14.98
2023-03-31T18:10:05.854Z,14.77
2023-03-31T18:12:34.451Z,15.06
2023-03-31T18:15:03.853Z,15.36
2023-03-31T18:17:31.750Z,15.36
2023-03-31T18:20:00.127Z,15.19
2023-03-31T18:22:28.431Z,15.11
2023-03-31T18:24:57.491Z,14.88
2023-03-31T18:27:25.388Z,14.95
2023-03-31T18:29:53.367Z,14.99
2023-03-31T18:32:21.281Z,14.97
2023-03-31T18:34:49.309Z,14.86
2023-03-31T18:37:17.058Z,14.81
2023-03-31T18:39:44.811Z,14.88
2023-03-31T18:42:13.947Z,15.00
2023-03-31T18:44:41.763Z,14.83
2023-03-31T18:47:09.544Z,14.87
2023-03-31T18:49:37.324Z,14.84
2023-03-31T18:52:05.495Z,14.89
2023-03-31T18:54:33.243Z,15.01
2023-03-31T18:57:02.075Z,14.90
2023-03-31T18:59:31.190Z,14.65
2023-03-31T19:01:59.042Z,14.74
2023-03-31T19:04:27.064Z,14.69
2023-03-31T19:06:55.888Z,14.67
2023-03-31T19:09:26.084Z,14.46
2023-03-31T19:11:54.566Z,14.72
2023-03-31T19:14:22.278Z,14.75
2023-03-31T19:16:51.371Z,14.73
2023-03-31T19:19:19.181Z,14.80
2023-03-31T19:21:47.171Z,14.48
2023-03-31T19:24:15.057Z,14.57
2023-03-31T19:26:43.497Z,14.66
2023-03-31T19:29:11.226Z,14.63
2023-03-31T19:31:40.476Z,14.60
2023-03-31T19:34:12.257Z,14.56
2023-03-31T19:36:40.169Z,14.53
2023-03-31T19:39:08.154Z,14.64
2023-03-31T19:41:36.457Z,14.54
2023-03-31T19:44:04.222Z,14.30
2023-03-31T19:46:32.098Z,14.41
2023-03-31T19:49:00.009Z,14.33
2023-03-31T19:51:29.308Z,14.58
2023-03-31T19:53:57.746Z,14.55
2023-03-31T19:56:27.112Z,14.43
2023-03-31T19:58:54.944Z,14.42
2023-03-31T20:01:26.024Z,14.41
2023-03-31T20:03:54.679Z,14.56
2023-03-31T20:06:23.956Z,14.40
2023-03-31T20:08:55.292Z,14.29
2023-03-31T20:11:23.389Z,14.25
2023-03-31T20:13:51.270Z,14.16
2023-03-31T20:16:20.887Z,14.23
2023-03-31T20:18:53.209Z,14.29
2023-03-31T20:21:22.719Z,14.39
2023-03-31T20:23:51.086Z,14.58
2023-03-31T20:26:22.059Z,14.48
2023-03-31T20:28:50.081Z,14.27
2023-03-31T20:31:19.661Z,14.36
2023-03-31T20:33:48.040Z,14.33
2023-03-31T20:36:17.513Z,14.14
2023-03-31T20:38:47.386Z,14.25
2023-03-31T20:41:15.697Z,14.24
2023-03-31T20:43:45.220Z,14.27
2023-03-31T20:46:13.137Z,14.18
2023-03-31T20:48:42.304Z,14.35
2023-03-31T20:51:11.483Z,14.19
2023-03-31T20:53:42.635Z,14.13
2023-03-31T20:56:11.856Z,14.18
2023-03-31T20:58:41.801Z,14.18
2023-03-31T21:01:13.383Z,14.05
2023-03-31T21:03:41.384Z,14.21
2023-03-31T21:06:11.190Z,14.09
2023-03-31T21:08:40.744Z,14.14
2023-03-31T21:11:08.748Z,14.07
2023-03-31T21:13:37.149Z,14.22
2023-03-31T21:16:06.870Z,14.08
2023-03-31T21:18:37.599Z,14.03
2023-03-31T21:21:06.581Z,14.11
2023-03-31T21:23:34.460Z,14.17
2023-03-31T21:26:03.746Z,14.04
2023-03-31T21:28:33.170Z,14.02
2023-03-31T21:31:02.830Z,14.15
2023-03-31T21:33:31.686Z,14.01
2023-03-31T21:36:01.276Z,14.05
2023-03-31T21:38:29.091Z,14.05
2023-03-31T21:40:57.663Z,14.03
2023-03-31T21:43:25.895Z,14.08
2023-03-31T21:45:54.565Z,14.24
2023-03-31T21:48:25.076Z,14.13
2023-03-31T21:50:54.760Z,14.19
2023-03-31T21:53:24.377Z,14.06
2023-03-31T21:55:55.090Z,14.16
2023-03-31T21:58:23.459Z,14.11
2023-03-31T22:00:51.265Z,14.21
2023-03-31T22:03:27.136Z,14.19
2023-03-31T22:05:55.716Z,14.20
2023-03-31T22:08:25.412Z,14.07
2023-03-31T22:10:53.715Z,14.08
2023-03-31T22:13:22.380Z,14.13
2023-03-31T22:15:50.243Z,14.16
2023-03-31T22:18:18.230Z,14.05
2023-03-31T22:20:46.763Z,14.05
2023-03-31T22:23:15.049Z,13.93
2023-03-31T22:25:44.192Z,14.09
2023-03-31T22:28:12.583Z,14.01
2023-03-31T22:30:40.408Z,14.09
2023-03-31T22:33:08.272Z,13.98
2023-03-31T22:35:36.366Z,14.08
2023-03-31T22:38:05.687Z,14.17
2023-03-31T22:40:35.629Z,14.16
2023-03-31T22:44:00.040Z,14.09
2023-03-31T22:46:28.003Z,13.99
2023-03-31T22:48:55.819Z,14.04
2023-03-31T22:51:23.622Z,14.02
2023-03-31T22:53:52.136Z,14.00
2023-03-31T22:56:20.374Z,13.89
2023-03-31T22:58:48.148Z,13.94
2023-03-31T23:01:19.104Z,13.82
2023-03-31T23:03:47.646Z,13.86
2023-03-31T23:06:16.406Z,13.68
2023-03-31T23:08:45.328Z,13.81
2023-03-31T23:11:14.144Z,13.82
2023-03-31T23:13:42.454Z,13.87
2023-03-31T23:16:11.666Z,14.03
2023-03-31T23:18:44.225Z,13.86
2023-03-31T23:21:12.047Z,14.04
2023-03-31T23:23:39.784Z,14.08
2023-03-31T23:26:07.973Z,14.06
2023-03-31T23:28:38.002Z,14.19
2023-03-31T23:31:06.198Z,14.13
2023-03-31T23:33:34.041Z,13.98
2023-03-31T23:36:04.954Z,14.16
2023-03-31T23:38:33.190Z,14.07
2023-03-31T23:41:01.680Z,14.03
2023-03-31T23:43:30.255Z,13.95
2023-03-31T23:45:58.072Z,13.90
2023-03-31T23:48:26.482Z,13.71
2023-03-31T23:50:54.200Z,13.80
2023-03-31T23:53:23.290Z,13.95
2023-03-31T23:55:54.929Z,13.91
2023-03-31T23:58:22.677Z,14.04
